Time;durP1;ratioP1;P1;durP2;ratioP2;P2;SDS_P1;SDS_P2;PMS_P1;PMS_P2;Temp;Humidity;BMP_temperature;BMP_pressure;BME280_temperature;BME280_humidity;BME280_pressure;Samples;Min_cycle;Max_cycle;Signal;HPM_P1;HPM_P2
2023/07/14 00:01:23;;;;;;;6.30;3.87;;;17.10;99.90;;;;;;5036489;28;20510;-69
2023/07/14 00:03:53;;;;;;;3.57;3.07;;;17.10;99.90;;;;;;5036029;28;20523;-69
2023/07/14 00:06:21;;;;;;;4.07;2.90;;;17.10;99.90;;;;;;5036576;28;20471;-69
2023/07/14 00:08:49;;;;;;;3.87;2.60;;;17.00;99.90;;;;;;5036578;28;20518;-69
2023/07/14 00:11:21;;;;;;;4.30;3.27;;;16.90;99.90;;;;;;5025944;28;20579;-69
2023/07/14 00:13:48;;;;;;;5.30;2.77;;;16.90;99.90;;;;;;5036460;28;20435;-69
2023/07/14 00:16:19;;;;;;;4.93;4.43;;;16.80;99.90;;;;;;5036636;28;20531;-69
2023/07/14 00:18:47;;;;;;;3.67;2.43;;;16.90;99.90;;;;;;5036110;28;20444;-69
2023/07/14 00:21:17;;;;;;;4.10;2.90;;;16.80;99.90;;;;;;5036190;28;20547;-69
2023/07/14 00:23:46;;;;;;;3.67;2.73;;;16.70;99.90;;;;;;5035933;28;20471;-69
2023/07/14 00:26:19;;;;;;;5.83;2.67;;;16.70;99.90;;;;;;5036066;28;20833;-69
2023/07/14 00:28:48;;;;;;;5.07;2.90;;;16.70;99.90;;;;;;5036175;28;20922;-70
2023/07/14 00:31:17;;;;;;;3.63;2.40;;;16.60;99.90;;;;;;5035683;28;20985;-69
2023/07/14 00:33:45;;;;;;;6.53;2.50;;;16.60;99.90;;;;;;5035577;28;20552;-69
2023/07/14 00:36:17;;;;;;;4.47;2.20;;;16.50;99.90;;;;;;5036103;28;20555;-69
2023/07/14 00:38:47;;;;;;;3.10;1.87;;;16.50;99.90;;;;;;5035951;28;20827;-69
2023/07/14 00:41:20;;;;;;;6.47;3.37;;;16.40;99.90;;;;;;5035669;28;20490;-69
2023/07/14 00:43:48;;;;;;;3.57;2.80;;;16.40;99.90;;;;;;5030951;28;20520;-68
2023/07/14 00:46:25;;;;;;;3.93;3.03;;;16.40;99.90;;;;;;5016222;28;20444;-69
2023/07/14 00:49:00;;;;;;;4.20;3.00;;;16.40;99.90;;;;;;5016061;28;20433;-69
2023/07/14 00:51:29;;;;;;;5.50;2.53;;;16.40;99.90;;;;;;5016056;28;20461;-69
2023/07/14 00:53:58;;;;;;;5.40;2.67;;;16.40;99.90;;;;;;5015506;28;20530;-69
2023/07/14 00:56:36;;;;;;;5.43;2.70;;;16.40;99.90;;;;;;5015474;28;20495;-69
2023/07/14 00:59:12;;;;;;;4.30;2.50;;;16.40;99.90;;;;;;5016144;28;20425;-69
2023/07/14 01:02:16;;;;;;;6.00;3.07;;;16.40;99.90;;;;;;5015911;28;20430;-69
2023/07/14 01:04:46;;;;;;;3.90;3.20;;;16.40;99.90;;;;;;5015101;28;20527;-69
2023/07/14 01:07:15;;;;;;;8.63;2.93;;;16.40;99.90;;;;;;5015485;28;20515;-69
2023/07/14 01:09:46;;;;;;;4.27;2.60;;;16.30;99.90;;;;;;5015368;28;20525;-69
2023/07/14 01:12:20;;;;;;;3.97;3.20;;;16.30;99.90;;;;;;5015459;28;20542;-69
2023/07/14 01:14:52;;;;;;;3.60;2.63;;;16.30;99.90;;;;;;5024837;28;20434;-69
2023/07/14 01:17:21;;;;;;;5.37;2.80;;;16.30;99.90;;;;;;5034972;28;20527;-69
2023/07/14 01:19:54;;;;;;;5.30;4.10;;;16.20;99.90;;;;;;5035136;28;20884;-69
2023/07/14 01:22:37;;;;;;;6.57;4.67;;;16.20;99.90;;;;;;5034665;28;20441;-69
2023/07/14 01:25:15;;;;;;;5.03;2.60;;;16.10;99.90;;;;;;5034454;28;20506;-69
2023/07/14 01:27:46;;;;;;;7.30;3.00;;;16.10;99.90;;;;;;5034933;28;20531;-69
2023/07/14 01:30:13;;;;;;;4.00;3.20;;;16.10;99.90;;;;;;5034615;28;20936;-69
2023/07/14 01:32:45;;;;;;;5.23;3.40;;;16.00;99.90;;;;;;5034564;28;20930;-69
2023/07/14 01:35:13;;;;;;;3.90;2.63;;;16.00;99.90;;;;;;5034207;28;20528;-69
2023/07/14 01:37:40;;;;;;;4.00;2.90;;;16.00;99.90;;;;;;5032873;28;20539;-69
2023/07/14 01:40:13;;;;;;;5.60;2.97;;;16.00;99.90;;;;;;5034481;28;20958;-69
2023/07/14 01:42:44;;;;;;;4.77;3.27;;;16.00;99.90;;;;;;5034769;28;20473;-69
2023/07/14 01:45:14;;;;;;;3.87;2.50;;;16.00;99.90;;;;;;5020035;28;20521;-69
2023/07/14 01:47:44;;;;;;;3.80;2.50;;;16.00;99.90;;;;;;5014892;28;20452;-69
2023/07/14 01:50:17;;;;;;;4.80;2.63;;;15.90;99.90;;;;;;5030727;28;20528;-69
2023/07/14 01:52:46;;;;;;;4.90;3.00;;;15.90;99.90;;;;;;5034325;28;20484;-69
2023/07/14 01:55:15;;;;;;;4.30;2.77;;;15.80;99.90;;;;;;5034400;28;20433;-69
2023/07/14 01:57:45;;;;;;;4.17;2.10;;;15.80;99.90;;;;;;5034004;28;20493;-69
2023/07/14 02:00:13;;;;;;;7.00;2.67;;;15.90;99.90;;;;;;5034062;28;20514;-69
2023/07/14 02:02:41;;;;;;;8.10;2.63;;;15.80;99.90;;;;;;5034205;28;20553;-69
2023/07/14 02:05:26;;;;;;;6.47;2.83;;;15.90;99.90;;;;;;5033557;28;20447;-69
2023/07/14 02:07:55;;;;;;;7.93;3.23;;;15.80;99.90;;;;;;5034006;28;20506;-69
2023/07/14 02:10:32;;;;;;;4.20;2.77;;;15.80;99.90;;;;;;5033775;28;20478;-69
2023/07/14 02:13:07;;;;;;;3.67;2.60;;;15.70;99.90;;;;;;5033617;28;20443;-69
2023/07/14 02:15:34;;;;;;;4.23;3.53;;;15.70;99.90;;;;;;5017490;28;20440;-69
2023/07/14 02:18:10;;;;;;;3.77;2.60;;;15.70;99.90;;;;;;5014416;28;20475;-69
2023/07/14 02:20:42;;;;;;;5.67;2.90;;;15.60;99.90;;;;;;5014533;28;20439;-69
2023/07/14 02:23:15;;;;;;;4.93;2.90;;;15.60;99.90;;;;;;5014392;28;20438;-69
2023/07/14 02:25:46;;;;;;;3.90;2.73;;;15.50;99.90;;;;;;5029956;28;20436;-69
2023/07/14 02:28:18;;;;;;;7.63;3.13;;;15.50;99.90;;;;;;5033697;28;20424;-69
2023/07/14 02:30:50;;;;;;;4.60;2.80;;;15.50;99.90;;;;;;5026836;28;20508;-69
2023/07/14 02:33:24;;;;;;;5.87;3.00;;;15.50;99.90;;;;;;5014085;28;20853;-69
2023/07/14 02:36:00;;;;;;;5.67;2.50;;;15.50;99.90;;;;;;5013441;28;20418;-69
2023/07/14 02:38:29;;;;;;;4.47;2.37;;;15.50;99.90;;;;;;5013770;28;20977;-69
2023/07/14 02:41:07;;;;;;;4.27;3.00;;;15.50;99.90;;;;;;5017657;28;20479;-69
2023/07/14 02:43:35;;;;;;;3.97;2.43;;;15.50;99.90;;;;;;5033847;28;20471;-69
2023/07/14 02:46:29;;;;;;;4.90;2.63;;;15.50;99.90;;;;;;5033690;28;20857;-69
2023/07/14 02:48:58;;;;;;;4.10;2.53;;;15.40;99.90;;;;;;5033355;28;20434;-69
2023/07/14 02:51:25;;;;;;;9.80;3.40;;;15.40;99.90;;;;;;5033334;28;20520;-69
2023/07/14 02:53:52;;;;;;;3.73;2.37;;;15.30;99.90;;;;;;5030593;28;20526;-69
2023/07/14 02:56:21;;;;;;;9.20;2.37;;;15.30;99.90;;;;;;5033510;28;20524;-69
2023/07/14 02:58:51;;;;;;;4.50;2.77;;;15.30;99.90;;;;;;5033390;28;20474;-69
2023/07/14 03:01:23;;;;;;;3.70;2.40;;;15.30;99.90;;;;;;5033074;28;20923;-69
2023/07/14 03:03:55;;;;;;;4.17;2.60;;;15.30;99.90;;;;;;5032683;28;20523;-69
2023/07/14 03:06:23;;;;;;;4.20;3.00;;;15.30;99.90;;;;;;5026048;28;20482;-69
2023/07/14 03:08:55;;;;;;;4.90;3.20;;;15.30;99.90;;;;;;5033411;28;20534;-69
2023/07/14 03:11:27;;;;;;;6.00;2.20;;;15.30;99.90;;;;;;5033066;28;20571;-69
2023/07/14 03:13:55;;;;;;;6.90;2.30;;;15.30;99.90;;;;;;5033210;28;21001;-69
2023/07/14 03:16:39;;;;;;;4.57;2.47;;;15.30;99.90;;;;;;5032937;28;20522;-69
2023/07/14 03:19:07;;;;;;;4.17;2.50;;;15.30;99.90;;;;;;5033364;28;20507;-69
2023/07/14 03:21:35;;;;;;;4.53;2.63;;;15.30;99.90;;;;;;5033042;28;20476;-68
2023/07/14 03:24:05;;;;;;;6.83;4.17;;;15.20;99.90;;;;;;5033002;28;21003;-69
2023/07/14 03:26:32;;;;;;;6.67;3.70;;;15.20;99.90;;;;;;5030547;28;20461;-69
2023/07/14 03:29:05;;;;;;;6.57;2.80;;;15.20;99.90;;;;;;5033226;28;20542;-69
2023/07/14 03:31:34;;;;;;;5.60;2.70;;;15.20;99.90;;;;;;5032906;28;20542;-69
2023/07/14 03:34:10;;;;;;;4.57;1.93;;;15.20;99.90;;;;;;5032936;28;20483;-69
2023/07/14 03:36:38;;;;;;;5.57;2.23;;;15.20;99.90;;;;;;5032617;28;20431;-69
2023/07/14 03:39:26;;;;;;;3.90;2.43;;;15.20;99.90;;;;;;5033264;28;20436;-69
2023/07/14 03:41:55;;;;;;;7.67;2.70;;;15.20;99.90;;;;;;5033168;28;20840;-68
2023/07/14 03:44:28;;;;;;;4.93;3.33;;;15.20;99.90;;;;;;5033427;28;20478;-69
2023/07/14 03:46:55;;;;;;;4.97;2.67;;;15.20;99.90;;;;;;5025362;28;20470;-69
2023/07/14 03:49:22;;;;;;;4.17;2.40;;;15.10;99.90;;;;;;5016692;28;20479;-69
2023/07/14 03:51:49;;;;;;;5.20;2.90;;;15.10;99.90;;;;;;5016566;28;20468;-69
2023/07/14 03:54:16;;;;;;;4.57;2.70;;;15.10;99.90;;;;;;5027542;28;20498;-69
2023/07/14 03:56:44;;;;;;;5.33;3.10;;;15.10;99.90;;;;;;5036530;28;20437;-69
2023/07/14 03:59:11;;;;;;;4.93;2.27;;;15.10;99.90;;;;;;5037090;28;20443;-69
2023/07/14 04:01:49;;;;;;;3.50;1.90;;;15.10;99.90;;;;;;5036229;28;20921;-69
2023/07/14 04:04:22;;;;;;;5.07;2.20;;;15.10;99.90;;;;;;5035976;28;20522;-69
2023/07/14 04:06:54;;;;;;;4.83;2.27;;;15.10;99.90;;;;;;5036385;28;20839;-69
2023/07/14 04:09:22;;;;;;;7.23;2.70;;;15.10;99.90;;;;;;5036437;28;20937;-69
2023/07/14 04:11:49;;;;;;;5.73;2.87;;;15.10;99.90;;;;;;5036458;28;20492;-69
2023/07/14 04:14:16;;;;;;;5.30;2.83;;;15.20;99.90;;;;;;5035661;28;20527;-69
2023/07/14 04:16:44;;;;;;;4.10;2.83;;;15.20;99.90;;;;;;5036025;28;20435;-69
2023/07/14 04:19:11;;;;;;;7.00;3.23;;;15.20;99.90;;;;;;5036367;28;20531;-69
2023/07/14 04:21:39;;;;;;;4.27;2.13;;;15.20;99.90;;;;;;5036233;28;20837;-67
2023/07/14 04:24:06;;;;;;;4.80;2.63;;;15.20;99.90;;;;;;5020074;28;20440;-68
2023/07/14 04:26:33;;;;;;;4.00;2.63;;;15.30;99.90;;;;;;5016377;28;20440;-67
2023/07/14 04:29:00;;;;;;;3.10;2.43;;;15.40;99.90;;;;;;5016048;28;20499;-68
2023/07/14 04:31:29;;;;;;;7.70;2.87;;;15.50;99.90;;;;;;5015981;28;20435;-67
2023/07/14 04:33:57;;;;;;;4.17;2.43;;;15.60;99.90;;;;;;5015663;28;20443;-70
2023/07/14 04:36:24;;;;;;;3.03;2.30;;;15.70;99.90;;;;;;5016229;28;20454;-68
2023/07/14 04:39:04;;;;;;;4.50;3.23;;;15.80;99.90;;;;;;5016209;28;20795;-68
2023/07/14 04:41:32;;;;;;;5.10;2.63;;;15.80;99.90;;;;;;5015864;28;20468;-67
2023/07/14 04:44:06;;;;;;;3.80;2.80;;;15.90;99.90;;;;;;5015427;28;20480;-68
2023/07/14 04:46:33;;;;;;;3.40;2.20;;;15.90;99.90;;;;;;5016036;28;20987;-68
2023/07/14 04:49:01;;;;;;;4.47;2.50;;;15.90;99.90;;;;;;5016199;28;20515;-68
2023/07/14 04:51:28;;;;;;;3.97;2.77;;;15.90;99.90;;;;;;5011292;28;20486;-67
2023/07/14 04:53:55;;;;;;;4.57;2.50;;;16.00;99.90;;;;;;5022414;28;20973;-68
2023/07/14 04:56:22;;;;;;;4.33;2.60;;;16.00;99.90;;;;;;5024933;28;20469;-67
2023/07/14 04:58:50;;;;;;;4.63;2.60;;;16.00;99.90;;;;;;5022223;28;20485;-69
2023/07/14 05:01:17;;;;;;;4.30;2.33;;;16.10;99.90;;;;;;5018153;28;20433;-68
2023/07/14 05:03:44;;;;;;;4.17;2.20;;;16.20;99.90;;;;;;5017647;28;20466;-69
2023/07/14 05:06:13;;;;;;;3.50;2.43;;;16.30;99.90;;;;;;5014922;28;20437;-69
2023/07/14 05:08:40;;;;;;;4.50;2.83;;;16.30;99.90;;;;;;5014591;28;20479;-70
2023/07/14 05:11:07;;;;;;;4.60;3.00;;;16.40;99.90;;;;;;5014888;28;20548;-68
2023/07/14 05:13:34;;;;;;;3.67;2.70;;;16.40;99.90;;;;;;5014851;28;20567;-68
2023/07/14 05:16:01;;;;;;;2.93;2.20;;;16.50;99.90;;;;;;5014668;28;20855;-68
2023/07/14 05:18:28;;;;;;;4.83;2.37;;;16.50;99.50;;;;;;5014308;28;21006;-69
2023/07/14 05:20:59;;;;;;;7.10;2.03;;;16.50;99.40;;;;;;5014718;28;20481;-68
2023/07/14 05:23:28;;;;;;;5.60;2.90;;;16.60;99.40;;;;;;5014223;28;20461;-68
2023/07/14 05:25:55;;;;;;;6.10;2.93;;;16.70;98.70;;;;;;5014228;28;20969;-69
2023/07/14 05:28:23;;;;;;;2.80;1.70;;;16.70;98.70;;;;;;5014432;28;20504;-68
2023/07/14 05:30:51;;;;;;;5.80;2.10;;;16.80;98.10;;;;;;5014691;28;20471;-68
2023/07/14 05:33:18;;;;;;;4.40;2.63;;;16.80;98.30;;;;;;5014146;28;20567;-68
2023/07/14 05:35:45;;;;;;;5.27;2.40;;;16.90;98.40;;;;;;5014241;28;20536;-69
2023/07/14 05:38:13;;;;;;;10.83;2.77;;;16.90;98.40;;;;;;5010203;28;20441;-68
2023/07/14 05:40:41;;;;;;;3.50;2.40;;;17.00;98.20;;;;;;5024459;28;20475;-68
2023/07/14 05:43:08;;;;;;;4.17;2.47;;;17.10;98.10;;;;;;5021954;28;20493;-68
2023/07/14 05:45:39;;;;;;;4.43;2.70;;;17.30;98.20;;;;;;5014717;28;20469;-68
2023/07/14 05:48:07;;;;;;;6.30;2.60;;;17.40;98.20;;;;;;5011364;28;20448;-69
2023/07/14 05:50:36;;;;;;;5.80;3.43;;;17.50;97.70;;;;;;5013683;28;20448;-68
2023/07/14 05:53:03;;;;;;;3.47;2.30;;;17.60;97.40;;;;;;5012825;28;20805;-70
2023/07/14 05:55:30;;;;;;;3.60;2.57;;;17.60;97.10;;;;;;5013649;28;20477;-70
2023/07/14 05:57:58;;;;;;;4.50;2.37;;;17.70;96.50;;;;;;5013710;28;20545;-71
2023/07/14 06:00:25;;;;;;;4.13;2.30;;;17.70;96.40;;;;;;5014011;28;20529;-69
2023/07/14 06:02:52;;;;;;;6.80;2.50;;;17.70;96.40;;;;;;5013309;28;20446;-70
2023/07/14 06:05:20;;;;;;;7.30;2.00;;;17.80;96.40;;;;;;5033243;28;20545;-70
2023/07/14 06:07:47;;;;;;;6.73;2.43;;;17.80;96.30;;;;;;5025385;28;20453;-71
2023/07/14 06:10:16;;;;;;;4.53;1.80;;;17.80;96.50;;;;;;5012347;28;20445;-72
2023/07/14 06:12:44;;;;;;;3.37;2.20;;;17.90;96.80;;;;;;5021825;28;20473;-70
2023/07/14 06:15:12;;;;;;;5.47;2.30;;;18.00;97.10;;;;;;5017417;28;20843;-70
2023/07/14 06:17:39;;;;;;;4.17;2.10;;;18.10;96.70;;;;;;5007061;28;20478;-70
2023/07/14 06:20:08;;;;;;;4.10;2.50;;;18.20;96.90;;;;;;5003937;28;20453;-70
2023/07/14 06:22:34;;;;;;;4.13;2.47;;;18.40;96.80;;;;;;5011008;28;20500;-71
2023/07/14 06:25:02;;;;;;;9.23;2.70;;;18.50;96.50;;;;;;5011838;28;20516;-71
2023/07/14 06:27:33;;;;;;;3.40;2.40;;;18.60;96.10;;;;;;5026428;28;20436;-70
2023/07/14 06:30:00;;;;;;;5.83;2.67;;;18.70;96.00;;;;;;5033315;28;20429;-70
2023/07/14 06:32:28;;;;;;;4.77;2.10;;;18.80;96.20;;;;;;5033196;28;20570;-70
2023/07/14 06:34:56;;;;;;;4.87;2.07;;;18.90;96.70;;;;;;5032752;28;20531;-70
2023/07/14 06:37:24;;;;;;;4.30;1.97;;;19.10;97.10;;;;;;5022599;28;20450;-70
2023/07/14 06:39:51;;;;;;;3.40;2.03;;;19.30;97.10;;;;;;5013178;28;20442;-70
2023/07/14 06:42:18;;;;;;;4.40;2.20;;;19.40;96.70;;;;;;5010763;28;20541;-70
2023/07/14 06:44:46;;;;;;;7.83;2.20;;;19.50;96.30;;;;;;5013029;28;20529;-74
2023/07/14 06:47:15;;;;;;;3.13;1.97;;;19.60;95.90;;;;;;5013277;28;20815;-70
2023/07/14 06:49:43;;;;;;;5.00;2.40;;;19.70;95.80;;;;;;5010792;28;20443;-70
2023/07/14 06:52:12;;;;;;;3.10;1.90;;;19.70;95.70;;;;;;5004407;28;20451;-70
2023/07/14 06:54:39;;;;;;;4.10;1.67;;;19.80;95.50;;;;;;5027521;28;20441;-70
2023/07/14 06:57:06;;;;;;;3.80;1.80;;;20.00;95.40;;;;;;5010521;28;20439;-71
2023/07/14 06:59:34;;;;;;;3.93;2.10;;;20.10;95.30;;;;;;5012731;28;20787;-71
2023/07/14 07:02:09;;;;;;;3.40;2.10;;;20.20;95.30;;;;;;5010182;28;20443;-74
2023/07/14 07:04:36;;;;;;;2.73;1.50;;;20.40;95.10;;;;;;5013577;28;20434;-70
2023/07/14 07:07:06;;;;;;;3.50;2.00;;;20.50;94.90;;;;;;5019497;28;20513;-70
2023/07/14 07:09:33;;;;;;;4.30;1.93;;;20.60;94.30;;;;;;5033337;28;20473;-71
2023/07/14 07:12:00;;;;;;;3.23;1.90;;;20.70;93.50;;;;;;5019244;28;20554;-70
2023/07/14 07:14:28;;;;;;;3.87;2.30;;;20.80;93.30;;;;;;5013603;28;20538;-70
2023/07/14 07:16:55;;;;;;;5.23;2.40;;;20.90;93.50;;;;;;5013510;28;20468;-70
2023/07/14 07:19:21;;;;;;;2.90;1.50;;;21.00;93.50;;;;;;5013358;28;20444;-70
2023/07/14 07:21:48;;;;;;;4.30;1.67;;;21.10;93.10;;;;;;5016815;28;20523;-70
2023/07/14 07:24:17;;;;;;;3.03;1.70;;;21.20;92.40;;;;;;5017162;28;20439;-70
2023/07/14 07:26:44;;;;;;;3.43;1.73;;;21.30;92.30;;;;;;5017393;28;20549;-70
2023/07/14 07:29:11;;;;;;;3.83;1.37;;;21.40;91.90;;;;;;5017479;28;20852;-70
2023/07/14 07:31:38;;;;;;;4.03;2.00;;;21.50;92.00;;;;;;5017097;28;20448;-70
2023/07/14 07:34:05;;;;;;;3.73;1.37;;;21.70;91.80;;;;;;5017299;28;20574;-70
2023/07/14 07:36:32;;;;;;;6.60;2.00;;;21.80;92.00;;;;;;5017431;28;20440;-70
2023/07/14 07:38:59;;;;;;;2.90;1.73;;;22.00;92.00;;;;;;5017537;28;20483;-71
2023/07/14 07:41:28;;;;;;;6.97;2.13;;;22.20;91.00;;;;;;5016911;28;20531;-70
2023/07/14 07:43:55;;;;;;;4.47;2.33;;;22.30;90.00;;;;;;5016986;28;20527;-70
2023/07/14 07:46:22;;;;;;;5.70;2.50;;;22.40;89.90;;;;;;5016823;28;20522;-70
2023/07/14 07:48:49;;;;;;;2.53;1.53;;;22.50;89.30;;;;;;5016453;28;20850;-70
2023/07/14 07:51:17;;;;;;;2.80;1.97;;;22.60;86.40;;;;;;5016415;28;20536;-70
2023/07/14 07:53:44;;;;;;;4.40;2.00;;;22.70;85.70;;;;;;5016646;28;20509;-70
2023/07/14 07:56:11;;;;;;;4.30;1.70;;;22.90;86.60;;;;;;5016932;28;20528;-70
2023/07/14 07:58:40;;;;;;;4.07;1.67;;;23.00;85.70;;;;;;5016652;28;20784;-70
2023/07/14 08:01:09;;;;;;;4.47;1.80;;;23.20;83.50;;;;;;5016951;28;20449;-70
2023/07/14 08:03:37;;;;;;;3.93;1.57;;;23.30;81.80;;;;;;5016447;28;20506;-70
2023/07/14 08:06:06;;;;;;;5.13;1.50;;;23.30;82.40;;;;;;5016530;28;20520;-70
2023/07/14 08:08:33;;;;;;;2.97;1.83;;;23.50;83.20;;;;;;5016849;28;20474;-70
2023/07/14 08:11:01;;;;;;;3.80;2.13;;;23.60;82.20;;;;;;5016532;28;20539;-70
2023/07/14 08:13:29;;;;;;;5.37;1.50;;;23.90;82.40;;;;;;5016895;28;20566;-70
2023/07/14 08:15:58;;;;;;;9.00;1.97;;;24.10;79.80;;;;;;5016696;28;20477;-70
2023/07/14 08:18:25;;;;;;;4.70;1.80;;;24.50;77.80;;;;;;5016567;28;20474;-70
2023/07/14 08:20:52;;;;;;;3.80;2.03;;;24.90;77.70;;;;;;5016702;28;20537;-70
2023/07/14 08:23:20;;;;;;;2.30;1.50;;;25.30;75.80;;;;;;5008578;28;20533;-70
2023/07/14 08:25:53;;;;;;;3.67;1.67;;;25.70;69.60;;;;;;5016340;28;20541;-70
2023/07/14 08:28:20;;;;;;;2.97;1.73;;;26.10;61.50;;;;;;5016375;28;20432;-70
2023/07/14 08:30:48;;;;;;;3.10;1.67;;;26.30;62.00;;;;;;5016296;28;20478;-70
2023/07/14 08:33:16;;;;;;;2.97;1.57;;;26.50;59.10;;;;;;5014894;28;21048;-70
2023/07/14 08:35:43;;;;;;;7.20;2.03;;;26.60;59.00;;;;;;5016152;28;20526;-70
2023/07/14 08:38:10;;;;;;;2.90;1.57;;;26.70;59.60;;;;;;5016166;28;20517;-70
2023/07/14 08:40:44;;;;;;;4.03;1.60;;;26.80;56.30;;;;;;5015823;28;21005;-70
2023/07/14 08:43:25;;;;;;;4.87;1.77;;;26.80;56.40;;;;;;5016201;28;20435;-70
2023/07/14 08:45:57;;;;;;;4.40;1.70;;;27.00;55.00;;;;;;5016065;28;20427;-71
2023/07/14 08:48:37;;;;;;;2.90;1.97;;;27.10;55.30;;;;;;5015750;28;20950;-70
2023/07/14 08:51:16;;;;;;;3.47;2.10;;;27.30;55.70;;;;;;5015880;28;20431;-70
2023/07/14 08:53:50;;;;;;;4.47;1.90;;;27.50;54.40;;;;;;5015453;28;21047;-71
2023/07/14 08:56:27;;;;;;;2.63;1.93;;;27.70;54.10;;;;;;5014954;28;20431;-70
2023/07/14 08:58:54;;;;;;;3.40;1.90;;;27.80;52.50;;;;;;5015918;28;20518;-70
2023/07/14 09:01:28;;;;;;;3.17;1.50;;;27.90;51.60;;;;;;5015412;28;20811;-70
2023/07/14 09:04:02;;;;;;;2.77;1.70;;;27.90;52.00;;;;;;5015595;28;20522;-70
2023/07/14 09:06:33;;;;;;;2.47;1.53;;;27.90;52.10;;;;;;5015806;28;20430;-71
2023/07/14 09:09:00;;;;;;;4.03;1.63;;;27.90;49.50;;;;;;5015727;28;20466;-71
2023/07/14 09:11:38;;;;;;;2.70;1.70;;;27.80;51.80;;;;;;5015345;28;20510;-71
2023/07/14 09:14:17;;;;;;;3.10;1.57;;;28.00;53.20;;;;;;5015413;28;20521;-71
2023/07/14 09:16:56;;;;;;;3.63;1.93;;;28.20;54.00;;;;;;5015568;28;20427;-71
2023/07/14 09:19:40;;;;;;;5.33;1.83;;;28.40;52.20;;;;;;5015580;28;20482;-71
2023/07/14 09:22:15;;;;;;;2.77;2.10;;;28.50;51.80;;;;;;5015224;28;20853;-71
2023/07/14 09:24:52;;;;;;;4.07;1.50;;;28.80;52.70;;;;;;5015270;28;20465;-71
2023/07/14 09:27:22;;;;;;;5.60;1.70;;;29.00;52.50;;;;;;5007151;28;20426;-71
2023/07/14 09:29:50;;;;;;;3.53;1.97;;;29.20;51.70;;;;;;5015308;28;20767;-71
2023/07/14 09:32:29;;;;;;;4.37;1.80;;;29.30;52.10;;;;;;5014907;28;20525;-72
2023/07/14 09:34:59;;;;;;;6.30;1.57;;;29.50;49.50;;;;;;5014894;28;20467;-71
2023/07/14 09:37:33;;;;;;;3.60;1.87;;;29.60;49.10;;;;;;5015152;28;20514;-70
2023/07/14 09:40:15;;;;;;;3.67;2.10;;;29.70;50.00;;;;;;5015120;28;20522;-70
2023/07/14 09:42:43;;;;;;;3.97;1.73;;;29.70;46.70;;;;;;5014980;28;20431;-71
2023/07/14 09:45:17;;;;;;;3.10;1.70;;;29.70;47.70;;;;;;5014600;28;20455;-71
2023/07/14 09:47:46;;;;;;;2.67;1.57;;;29.70;46.40;;;;;;5015002;28;20424;-70
2023/07/14 09:50:18;;;;;;;3.97;1.80;;;29.70;46.90;;;;;;5014911;28;20525;-71
2023/07/14 09:52:54;;;;;;;9.93;3.10;;;29.70;46.50;;;;;;5015175;28;20494;-70
2023/07/14 09:55:21;;;;;;;4.00;1.97;;;29.90;47.10;;;;;;5015043;28;20470;-70
2023/07/14 09:57:53;;;;;;;3.83;1.70;;;30.00;46.00;;;;;;5014604;28;20478;-71
2023/07/14 10:00:24;;;;;;;2.80;1.60;;;30.10;45.70;;;;;;5014918;28;20527;-70
2023/07/14 10:02:58;;;;;;;6.40;1.90;;;30.30;46.70;;;;;;5014600;28;20809;-71
2023/07/14 10:05:37;;;;;;;3.47;1.77;;;30.50;45.80;;;;;;5014270;28;20434;-71
2023/07/14 10:08:06;;;;;;;4.00;2.10;;;30.60;45.60;;;;;;5014271;28;20973;-70
2023/07/14 10:10:42;;;;;;;2.87;1.87;;;30.60;44.50;;;;;;5014317;28;20944;-70
2023/07/14 10:13:19;;;;;;;3.07;1.70;;;30.70;44.00;;;;;;5014493;28;20510;-71
2023/07/14 10:15:54;;;;;;;3.10;1.97;;;30.80;44.60;;;;;;5014581;28;20470;-71
2023/07/14 10:18:22;;;;;;;3.47;2.00;;;31.00;44.90;;;;;;5014360;28;20453;-71
2023/07/14 10:21:02;;;;;;;4.93;1.70;;;31.20;43.20;;;;;;5014412;28;20450;-71
2023/07/14 10:23:29;;;;;;;2.63;1.70;;;31.20;41.70;;;;;;5014538;28;20431;-70
2023/07/14 10:25:56;;;;;;;7.80;1.77;;;31.30;42.50;;;;;;5014261;28;20526;-72
2023/07/14 10:28:27;;;;;;;5.10;1.93;;;31.30;41.90;;;;;;5014283;28;20534;-71
2023/07/14 10:31:06;;;;;;;3.03;1.73;;;31.30;41.70;;;;;;5014375;28;20423;-71
2023/07/14 10:33:43;;;;;;;6.73;2.10;;;31.30;42.40;;;;;;5013818;28;20459;-71
2023/07/14 10:36:15;;;;;;;3.23;1.70;;;31.30;40.10;;;;;;5014302;28;20517;-71
2023/07/14 10:38:48;;;;;;;3.30;1.70;;;31.30;41.30;;;;;;5014510;28;20435;-71
2023/07/14 10:41:17;;;;;;;3.10;1.87;;;31.40;42.90;;;;;;5014284;28;20526;-71
2023/07/14 10:43:49;;;;;;;3.10;1.80;;;31.50;41.40;;;;;;5014130;28;20447;-70
2023/07/14 10:46:18;;;;;;;3.80;1.63;;;31.50;42.00;;;;;;5013789;28;20523;-71
2023/07/14 10:48:52;;;;;;;3.13;2.07;;;31.50;39.40;;;;;;5014093;28;20455;-70
2023/07/14 10:51:36;;;;;;;5.10;1.70;;;31.50;38.60;;;;;;5006215;28;20459;-70
2023/07/14 10:54:10;;;;;;;5.50;1.77;;;31.50;39.20;;;;;;5013599;28;20545;-71
2023/07/14 10:56:42;;;;;;;3.57;1.80;;;31.60;38.90;;;;;;5013099;28;20427;-70
2023/07/14 10:59:16;;;;;;;2.90;1.77;;;31.70;39.30;;;;;;5013988;28;20513;-71
2023/07/14 11:01:53;;;;;;;3.00;1.60;;;31.80;38.30;;;;;;5013525;28;20985;-70
2023/07/14 11:04:26;;;;;;;4.63;1.60;;;31.80;38.90;;;;;;5013411;28;20461;-78
2023/07/14 11:06:56;;;;;;;3.23;1.73;;;31.90;40.30;;;;;;5013870;28;20434;-70
2023/07/14 11:09:23;;;;;;;4.63;1.90;;;32.10;39.30;;;;;;5013787;28;20489;-70
2023/07/14 11:11:58;;;;;;;3.53;2.10;;;32.10;37.20;;;;;;5013398;28;20514;-71
2023/07/14 11:14:35;;;;;;;5.73;1.77;;;32.00;36.50;;;;;;5013849;28;20866;-70
2023/07/14 11:17:12;;;;;;;2.87;1.60;;;32.00;38.30;;;;;;5013924;28;20427;-70
2023/07/14 11:20:03;;;;;;;2.83;1.73;;;32.10;37.40;;;;;;5013849;28;20754;-71
2023/07/14 11:22:49;;;;;;;2.67;1.73;;;32.10;37.40;;;;;;5013368;28;20534;-71
2023/07/14 11:25:20;;;;;;;7.27;1.80;;;32.10;37.80;;;;;;5013346;28;20921;-70
2023/07/14 11:27:55;;;;;;;3.30;2.07;;;32.10;36.70;;;;;;5013921;28;20431;-70
2023/07/14 11:30:29;;;;;;;3.47;1.80;;;32.00;38.20;;;;;;5013373;28;20435;-70
2023/07/14 11:33:05;;;;;;;2.77;1.57;;;31.90;38.10;;;;;;5013337;28;20439;-70
2023/07/14 11:35:35;;;;;;;5.53;2.00;;;31.80;38.30;;;;;;5013534;28;20469;-70
2023/07/14 11:38:26;;;;;;;3.87;1.70;;;31.70;38.30;;;;;;5013507;28;20435;-71
2023/07/14 11:40:54;;;;;;;3.23;2.10;;;31.60;39.50;;;;;;5013219;28;20989;-70
2023/07/14 11:43:23;;;;;;;3.07;1.53;;;31.60;40.30;;;;;;5013215;28;20517;-70
2023/07/14 11:46:02;;;;;;;3.30;2.13;;;31.70;38.60;;;;;;5013153;28;20531;-71
2023/07/14 11:48:36;;;;;;;3.23;1.90;;;31.70;40.10;;;;;;5013568;28;20439;-71
2023/07/14 11:51:09;;;;;;;4.87;2.17;;;31.70;39.60;;;;;;5013164;28;20431;-71
2023/07/14 11:53:41;;;;;;;5.83;2.07;;;31.90;39.20;;;;;;5013060;28;20998;-70
2023/07/14 11:56:23;;;;;;;3.20;1.80;;;31.90;39.20;;;;;;5013406;28;20831;-70
2023/07/14 11:59:12;;;;;;;2.47;1.47;;;31.80;39.70;;;;;;5014036;28;20758;-70
2023/07/14 12:01:46;;;;;;;3.90;1.87;;;31.80;39.00;;;;;;5013000;28;20514;-70
2023/07/14 12:04:28;;;;;;;2.47;1.60;;;31.90;38.70;;;;;;5012916;28;20446;-71
2023/07/14 12:07:15;;;;;;;7.70;2.13;;;32.00;38.80;;;;;;5013253;28;20431;-71
2023/07/14 12:10:00;;;;;;;3.40;1.87;;;32.10;39.00;;;;;;5016900;28;20431;-71
2023/07/14 12:12:28;;;;;;;3.03;1.80;;;32.20;38.40;;;;;;5016409;28;20993;-70
2023/07/14 12:14:55;;;;;;;2.77;1.83;;;32.30;37.00;;;;;;5016163;28;20475;-70
2023/07/14 12:17:45;;;;;;;3.00;1.80;;;32.30;37.20;;;;;;5014536;28;20543;-70
2023/07/14 12:20:38;;;;;;;2.90;1.53;;;32.30;38.20;;;;;;5016758;28;20436;-70
2023/07/14 12:23:11;;;;;;;2.70;1.50;;;32.40;35.60;;;;;;5013704;28;20447;-70
2023/07/14 12:25:43;;;;;;;3.03;1.57;;;32.30;35.60;;;;;;5016500;28;20462;-70
2023/07/14 12:28:16;;;;;;;3.47;1.73;;;32.20;35.80;;;;;;5016102;28;20840;-71
2023/07/14 12:30:49;;;;;;;2.20;1.27;;;32.10;36.70;;;;;;5015696;28;20905;-70
2023/07/14 12:33:17;;;;;;;2.93;1.50;;;32.10;36.90;;;;;;5016353;28;20427;-70
2023/07/14 12:35:44;;;;;;;3.50;1.80;;;32.20;37.50;;;;;;5015957;28;20532;-72
2023/07/14 12:38:15;;;;;;;2.70;1.70;;;32.30;37.50;;;;;;5015682;28;20439;-70
2023/07/14 12:40:45;;;;;;;2.67;1.37;;;32.40;37.60;;;;;;5015879;28;20518;-70
2023/07/14 12:43:32;;;;;;;2.40;1.37;;;32.40;36.80;;;;;;5015274;28;20549;-71
2023/07/14 12:46:01;;;;;;;4.80;2.93;;;32.40;37.50;;;;;;5015064;28;20427;-71
2023/07/14 12:48:31;;;;;;;2.80;1.70;;;32.60;37.00;;;;;;5015115;28;20530;-71
2023/07/14 12:50:59;;;;;;;2.50;1.37;;;32.60;37.40;;;;;;5014634;28;20443;-70
2023/07/14 12:53:31;;;;;;;3.63;1.97;;;32.70;36.60;;;;;;5013947;28;20522;-71
2023/07/14 12:56:07;;;;;;;6.83;1.70;;;32.70;36.20;;;;;;5015212;28;20888;-71
2023/07/14 12:58:35;;;;;;;2.90;1.70;;;32.80;37.20;;;;;;5015418;28;20502;-70
2023/07/14 13:01:04;;;;;;;3.77;2.30;;;32.70;37.10;;;;;;5015646;28;20522;-70
2023/07/14 13:03:37;;;;;;;2.87;1.40;;;32.60;36.70;;;;;;5015495;28;20467;-71
2023/07/14 13:06:04;;;;;;;2.60;1.53;;;32.60;36.50;;;;;;5014109;28;20795;-70
2023/07/14 13:08:31;;;;;;;2.73;1.70;;;32.50;37.10;;;;;;5015079;28;20521;-70